createdAt,value
2019-01-21T00:03:21.910Z,55.03
2019-01-21T00:08:30.652Z,54.64
2019-01-21T00:13:38.294Z,53.92
2019-01-21T00:18:46.087Z,54.19
2019-01-21T00:23:54.102Z,55.22
2019-01-21T00:29:02.327Z,54.33
2019-01-21T00:34:10.124Z,55.08
2019-01-21T00:39:16.282Z,54.07
2019-01-21T00:44:23.288Z,54.15
2019-01-21T00:49:30.667Z,53.49
2019-01-21T00:54:37.554Z,53.54
2019-01-21T00:59:43.916Z,55.44
2019-01-21T01:04:51.660Z,56.61
2019-01-21T01:09:58.672Z,55.78
2019-01-21T01:15:07.022Z,56.46
2019-01-21T01:20:16.594Z,56.86
2019-01-21T01:25:24.778Z,57.63
2019-01-21T01:30:34.136Z,57.60
2019-01-21T01:35:42.152Z,56.83
2019-01-21T01:40:48.798Z,55.61
2019-01-21T01:45:56.454Z,54.36
2019-01-21T01:51:03.643Z,54.61
2019-01-21T01:56:13.996Z,55.30
2019-01-21T02:01:24.136Z,55.06
2019-01-21T02:06:30.181Z,55.12
2019-01-21T02:11:36.975Z,56.48
2019-01-21T02:16:45.531Z,56.63
2019-01-21T02:21:55.651Z,55.31
2019-01-21T02:27:06.798Z,62.52
2019-01-21T02:32:34.261Z,56.23
2019-01-21T02:38:09.977Z,55.53
2019-01-21T02:43:27.046Z,57.39
2019-01-21T02:48:48.932Z,58.22
2019-01-21T02:54:11.729Z,57.43
2019-01-21T02:59:24.347Z,57.75
2019-01-21T03:04:51.667Z,57.03
2019-01-21T03:10:11.859Z,57.05
2019-01-21T03:15:22.845Z,57.19
2019-01-21T03:20:38.918Z,58.16
2019-01-21T03:26:13.552Z,56.85
2019-01-21T03:31:34.720Z,61.04
2019-01-21T03:37:03.012Z,60.34
2019-01-21T03:42:17.972Z,59.36
2019-01-21T03:47:34.559Z,57.57
2019-01-21T03:53:01.314Z,58.45
2019-01-21T03:58:19.838Z,58.29
2019-01-21T04:03:47.892Z,58.85
2019-01-21T04:08:57.748Z,57.86
2019-01-21T04:14:13.750Z,60.36
2019-01-21T04:19:39.216Z,58.69
2019-01-21T04:25:00.888Z,59.15
2019-01-21T04:30:19.456Z,58.88
2019-01-21T04:35:50.224Z,59.49
2019-01-21T04:41:06.296Z,59.38
2019-01-21T04:46:33.923Z,60.67
2019-01-21T04:51:52.079Z,61.10
2019-01-21T04:57:22.707Z,62.49
2019-01-21T05:02:55.948Z,62.53
2019-01-21T05:08:22.489Z,61.67
2019-01-21T05:14:06.397Z,61.01
2019-01-21T05:19:28.431Z,60.18
2019-01-21T05:24:51.529Z,62.00
2019-01-21T05:30:10.220Z,60.26
2019-01-21T05:35:55.341Z,59.46
2019-01-21T05:41:12.034Z,58.48
2019-01-21T05:46:43.754Z,60.55
2019-01-21T05:52:14.856Z,61.24
2019-01-21T05:57:44.109Z,60.12
2019-01-21T06:03:23.124Z,62.09
2019-01-21T06:08:48.158Z,61.11
2019-01-21T06:14:00.363Z,60.30
2019-01-21T06:19:10.805Z,60.79
2019-01-21T06:24:43.266Z,62.18
2019-01-21T06:29:58.814Z,61.30
2019-01-21T06:35:26.201Z,60.55
2019-01-21T06:40:50.064Z,60.85
2019-01-21T06:46:24.206Z,60.28
2019-01-21T06:51:41.220Z,60.54
2019-01-21T06:57:08.571Z,59.71
2019-01-21T07:02:19.643Z,61.30
2019-01-21T07:07:41.372Z,59.46
2019-01-21T07:13:07.794Z,59.95
2019-01-21T07:18:26.092Z,58.80
2019-01-21T07:23:44.399Z,58.58
2019-01-21T07:34:29.057Z,58.51
2019-01-21T07:39:44.340Z,58.90
2019-01-21T07:45:17.867Z,57.96
2019-01-21T07:50:38.673Z,57.87
2019-01-21T07:56:09.365Z,57.93
2019-01-21T08:01:38.069Z,59.71
2019-01-21T08:07:26.478Z,58.46
2019-01-21T08:12:44.562Z,58.31
2019-01-21T08:17:59.062Z,57.90
2019-01-21T08:23:13.670Z,57.59
2019-01-21T08:28:48.468Z,57.67
2019-01-21T08:34:04.807Z,57.71
2019-01-21T08:39:53.667Z,59.68
2019-01-21T08:45:31.396Z,59.05
2019-01-21T08:50:44.169Z,59.35
2019-01-21T08:56:03.558Z,59.83
2019-01-21T09:01:46.237Z,58.81
2019-01-21T09:07:04.752Z,58.18
2019-01-21T09:12:34.480Z,58.69
2019-01-21T09:17:50.696Z,59.58
2019-01-21T09:23:22.825Z,59.48
2019-01-21T09:28:49.396Z,59.65
2019-01-21T09:34:06.682Z,58.84
2019-01-21T09:39:20.078Z,57.92
2019-01-21T09:44:42.321Z,57.87
2019-01-21T09:49:53.529Z,57.71
2019-01-21T09:55:03.774Z,57.48
2019-01-21T10:00:19.028Z,58.98
2019-01-21T10:05:34.887Z,61.15
2019-01-21T10:11:03.572Z,61.37
2019-01-21T10:16:16.121Z,59.51
2019-01-21T10:21:52.347Z,58.20
2019-01-21T10:27:15.770Z,57.53
2019-01-21T10:32:33.408Z,58.39
2019-01-21T10:38:14.951Z,57.20
2019-01-21T10:43:37.287Z,56.42
2019-01-21T10:48:59.599Z,56.08
2019-01-21T10:54:23.933Z,55.76
2019-01-21T10:59:44.549Z,54.70
2019-01-21T11:04:56.539Z,55.44
2019-01-21T11:10:22.000Z,56.31
2019-01-21T11:15:34.027Z,55.64
2019-01-21T11:21:04.026Z,56.31
2019-01-21T11:26:30.005Z,55.21
2019-01-21T11:31:58.043Z,55.06
2019-01-21T11:37:09.549Z,55.26
2019-01-21T11:42:24.802Z,56.56
2019-01-21T11:47:59.413Z,55.13
2019-01-21T11:53:17.722Z,54.21
2019-01-21T11:58:42.003Z,53.60
2019-01-21T12:03:57.886Z,54.33
2019-01-21T12:09:11.184Z,53.48
2019-01-21T12:14:51.526Z,52.94
2019-01-21T12:20:17.483Z,52.16
2019-01-21T12:25:27.665Z,52.81
2019-01-21T12:30:45.640Z,51.65
2019-01-21T12:36:01.831Z,50.70
2019-01-21T12:41:47.874Z,51.13
2019-01-21T12:47:17.067Z,49.93
2019-01-21T12:52:35.217Z,49.01
2019-01-21T12:58:01.465Z,49.05
2019-01-21T13:03:29.938Z,47.92
2019-01-21T13:08:44.631Z,48.21
2019-01-21T13:14:09.862Z,47.37
2019-01-21T13:19:26.502Z,46.98
2019-01-21T13:24:39.104Z,47.80
2019-01-21T13:29:48.091Z,47.92
2019-01-21T13:35:19.894Z,47.51
2019-01-21T13:40:52.149Z,47.91
2019-01-21T13:46:31.859Z,48.21
2019-01-21T13:52:06.606Z,46.86
2019-01-21T13:57:35.576Z,47.15
2019-01-21T14:02:48.968Z,47.33
2019-01-21T14:08:06.870Z,47.56
2019-01-21T14:13:16.945Z,47.01
2019-01-21T14:18:33.213Z,46.61
2019-01-21T14:23:48.530Z,46.72
2019-01-21T14:29:16.033Z,47.10
2019-01-21T14:34:34.008Z,46.45
2019-01-21T14:39:44.640Z,46.73
2019-01-21T14:45:19.340Z,46.58
2019-01-21T14:50:51.420Z,46.87
2019-01-21T14:56:17.232Z,46.69
2019-01-21T15:01:40.703Z,47.82
2019-01-21T15:07:00.881Z,50.05
2019-01-21T15:12:31.417Z,49.37
2019-01-21T15:18:04.061Z,49.40
2019-01-21T15:23:32.282Z,50.30
2019-01-21T15:28:47.644Z,50.61
2019-01-21T15:34:06.323Z,51.46
2019-01-21T15:39:19.970Z,51.31
2019-01-21T15:44:38.342Z,52.46
2019-01-21T15:49:50.230Z,52.91
2019-01-21T15:55:04.456Z,52.21
2019-01-21T16:00:23.900Z,53.03
2019-01-21T16:05:32.615Z,54.22
2019-01-21T16:11:03.976Z,54.65
2019-01-21T16:16:20.188Z,55.57
2019-01-21T16:21:58.407Z,56.62
2019-01-21T16:27:27.624Z,56.12
2019-01-21T16:32:35.035Z,56.31
2019-01-21T16:37:49.933Z,56.86
2019-01-21T16:42:56.523Z,56.13
2019-01-21T16:48:07.939Z,55.97
2019-01-21T16:53:15.884Z,56.12
2019-01-21T16:58:21.981Z,56.31
2019-01-21T17:03:29.729Z,56.07
2019-01-21T17:08:38.352Z,57.60
2019-01-21T17:13:45.750Z,57.09
2019-01-21T17:18:53.542Z,58.00
2019-01-21T17:23:59.441Z,58.51
2019-01-21T17:29:06.102Z,57.75
2019-01-21T17:34:12.040Z,56.79
2019-01-21T17:39:20.679Z,56.92
2019-01-21T17:44:26.903Z,57.24
2019-01-21T17:49:33.488Z,57.71
2019-01-21T17:54:41.934Z,57.60
2019-01-21T17:59:47.687Z,58.17
2019-01-21T18:04:53.318Z,58.54
2019-01-21T18:09:59.531Z,58.62
2019-01-21T18:15:09.502Z,58.82
2019-01-21T18:20:21.089Z,60.07
2019-01-21T18:25:30.628Z,60.33
2019-01-21T18:30:38.673Z,60.67
2019-01-21T18:35:46.829Z,60.90
2019-01-21T18:40:53.470Z,59.89
2019-01-21T18:46:00.356Z,60.56
2019-01-21T18:51:06.454Z,61.06
2019-01-21T18:56:13.242Z,60.51
2019-01-21T19:01:20.121Z,60.95
2019-01-21T19:06:26.095Z,59.60
2019-01-21T19:11:33.002Z,59.82
2019-01-21T19:16:39.257Z,61.21
2019-01-21T19:21:45.631Z,60.60
2019-01-21T19:26:51.616Z,61.05
2019-01-21T19:31:59.604Z,60.95
2019-01-21T19:37:05.608Z,61.31
2019-01-21T19:42:12.172Z,61.33
2019-01-21T19:47:19.336Z,60.64
2019-01-21T19:52:26.176Z,60.60
2019-01-21T19:57:32.056Z,60.13
2019-01-21T20:02:38.164Z,60.29
2019-01-21T20:07:44.360Z,60.90
2019-01-21T20:12:50.525Z,60.59
2019-01-21T20:17:58.833Z,60.39
2019-01-21T20:23:05.596Z,60.71
2019-01-21T20:28:11.860Z,61.30
2019-01-21T20:33:19.590Z,60.80
2019-01-21T20:38:25.315Z,60.35
2019-01-21T20:43:33.506Z,60.65
2019-01-21T20:48:42.220Z,60.43
2019-01-21T20:53:49.634Z,59.57
2019-01-21T20:58:55.305Z,59.95
2019-01-21T21:04:01.627Z,59.81
2019-01-21T21:09:09.309Z,59.32
2019-01-21T21:14:15.273Z,60.02
2019-01-21T21:19:21.655Z,59.55
2019-01-21T21:24:31.444Z,59.46
2019-01-21T21:29:38.604Z,59.25
2019-01-21T21:34:45.662Z,59.78
2019-01-21T21:39:54.396Z,59.50
2019-01-21T21:45:05.670Z,59.37
2019-01-21T21:50:26.356Z,59.31
2019-01-21T21:55:32.812Z,58.89
2019-01-21T22:00:39.382Z,58.96
2019-01-21T22:05:45.938Z,58.56
2019-01-21T22:10:53.448Z,58.57
2019-01-21T22:16:02.968Z,59.24
2019-01-21T22:21:11.193Z,58.64
2019-01-21T22:26:17.991Z,58.66
2019-01-21T22:31:24.801Z,59.55
2019-01-21T22:36:32.032Z,59.35
2019-01-21T22:41:39.541Z,59.00
2019-01-21T22:46:45.603Z,60.19
2019-01-21T22:51:53.156Z,60.05
2019-01-21T22:56:59.521Z,59.44
2019-01-21T23:02:07.284Z,59.74
2019-01-21T23:07:14.735Z,59.42
2019-01-21T23:12:22.547Z,59.05
2019-01-21T23:17:30.367Z,58.59
2019-01-21T23:22:37.953Z,58.17
2019-01-21T23:27:44.236Z,58.27
2019-01-21T23:32:50.841Z,57.52
2019-01-21T23:37:58.091Z,57.68
2019-01-21T23:43:06.002Z,58.24
2019-01-21T23:48:13.017Z,57.56
2019-01-21T23:53:20.042Z,57.71
2019-01-21T23:58:26.791Z,57.94
